createdAt,value
2023-03-10T00:00:09.159Z,0.25
2023-03-10T00:05:32.937Z,0.07
2023-03-10T00:10:36.602Z,-0.01
2023-03-10T00:15:40.196Z,-0.06
2023-03-10T00:20:43.711Z,1.64
2023-03-10T00:25:58.944Z,3.58
2023-03-10T00:31:11.447Z,2.18
2023-03-10T00:36:21.179Z,1.14
2023-03-10T00:41:28.672Z,0.55
2023-03-10T00:46:36.695Z,0.25
2023-03-10T00:51:40.210Z,1.34
2023-03-10T00:56:43.768Z,1.55
2023-03-10T01:01:47.354Z,0.70
2023-03-10T01:06:50.896Z,0.29
2023-03-10T01:11:54.795Z,1.91
2023-03-10T01:16:59.889Z,1.64
2023-03-10T01:22:03.531Z,0.74
2023-03-10T01:27:07.137Z,1.61
2023-03-10T01:32:10.738Z,3.48
2023-03-10T01:37:14.388Z,1.90
2023-03-10T01:42:17.952Z,0.93
2023-03-10T01:47:21.470Z,1.27
2023-03-10T01:52:29.531Z,2.64
2023-03-10T01:57:40.010Z,1.24
2023-03-10T02:02:48.119Z,0.61
2023-03-10T02:07:52.648Z,2.40
2023-03-10T02:12:56.255Z,4.59
2023-03-10T02:18:03.684Z,3.04
2023-03-10T02:23:12.033Z,1.38
2023-03-10T02:28:15.615Z,1.77
2023-03-10T02:33:38.842Z,2.71
2023-03-10T02:38:42.495Z,1.12
2023-03-10T02:43:48.484Z,2.12
2023-03-10T02:48:52.815Z,1.80
2023-03-10T02:53:56.953Z,1.94
2023-03-10T02:59:01.557Z,2.53
2023-03-10T03:04:05.814Z,1.19
2023-03-10T03:09:09.571Z,2.78
2023-03-10T03:14:13.178Z,2.10
2023-03-10T03:19:16.842Z,1.81
2023-03-10T03:24:24.091Z,2.54
2023-03-10T03:29:27.931Z,1.34
2023-03-10T03:34:31.549Z,3.02
2023-03-10T03:39:35.188Z,3.56
2023-03-10T03:44:39.046Z,1.65
2023-03-10T03:49:42.905Z,2.52
2023-03-10T03:54:46.438Z,2.64
2023-03-10T03:59:50.477Z,1.85
2023-03-10T04:04:55.613Z,3.26
2023-03-10T04:09:59.659Z,1.97
2023-03-10T04:15:03.645Z,2.74
2023-03-10T04:20:10.286Z,4.05
2023-03-10T04:25:13.917Z,2.17
2023-03-10T04:30:17.499Z,1.72
2023-03-10T04:35:21.111Z,3.25
2023-03-10T04:40:24.708Z,2.34
2023-03-10T04:45:28.277Z,2.29
2023-03-10T04:50:31.893Z,3.54
2023-03-10T04:55:35.817Z,1.86
2023-03-10T05:00:53.090Z,2.19
2023-03-10T05:06:05.464Z,4.71
2023-03-10T05:11:10.805Z,3.52
2023-03-10T05:16:20.828Z,1.78
2023-03-10T05:21:27.329Z,3.30
2023-03-10T05:26:33.531Z,3.52
2023-03-10T05:31:38.284Z,2.12
2023-03-10T05:36:43.781Z,3.78
2023-03-10T05:41:47.247Z,3.55
2023-03-10T05:46:51.048Z,1.78
2023-03-10T05:51:54.759Z,3.19
2023-03-10T05:56:58.565Z,4.31
2023-03-10T06:02:02.609Z,2.21
2023-03-10T06:07:06.556Z,2.90
2023-03-10T06:12:10.164Z,4.70
2023-03-10T06:17:14.288Z,3.30
2023-03-10T06:22:18.109Z,2.84
2023-03-10T06:27:21.715Z,4.50
2023-03-10T06:32:25.655Z,2.54
2023-03-10T06:37:29.507Z,3.80
2023-03-10T06:42:33.304Z,4.73
2023-03-10T06:47:37.450Z,2.74
2023-03-10T06:52:42.929Z,3.92
2023-03-10T06:57:46.693Z,4.33
2023-03-10T07:02:50.171Z,2.39
2023-03-10T07:07:55.896Z,3.26
2023-03-10T07:12:59.652Z,4.35
2023-03-10T07:18:03.590Z,2.64
2023-03-10T07:23:07.468Z,4.10
2023-03-10T07:28:11.312Z,5.64
2023-03-10T07:33:15.811Z,3.87
2023-03-10T07:38:19.533Z,3.10
2023-03-10T07:43:23.310Z,5.13
2023-03-10T07:48:27.300Z,4.31
2023-03-10T07:53:31.982Z,3.55
2023-03-10T07:58:36.859Z,4.98
2023-03-10T08:03:40.863Z,3.44
2023-03-10T08:08:44.702Z,4.87
2023-03-10T08:13:49.190Z,4.50
2023-03-10T08:18:54.962Z,3.06
2023-03-10T08:23:58.664Z,4.71
2023-03-10T08:29:02.658Z,4.48
2023-03-10T08:34:06.339Z,3.33
2023-03-10T08:39:12.945Z,5.09
2023-03-10T08:44:19.199Z,4.16
2023-03-10T08:49:23.442Z,4.45
2023-03-10T08:54:27.512Z,5.35
2023-03-10T08:59:31.147Z,3.37
2023-03-10T09:04:34.999Z,4.41
2023-03-10T09:09:38.797Z,4.89
2023-03-10T09:14:42.568Z,3.60
2023-03-10T09:19:46.071Z,4.62
2023-03-10T09:24:50.053Z,5.18
2023-03-10T09:29:53.761Z,3.79
2023-03-10T09:34:57.462Z,5.58
2023-03-10T09:40:01.079Z,4.92
2023-03-10T09:45:44.095Z,4.88
2023-03-10T09:50:52.656Z,6.25
2023-03-10T09:55:57.316Z,4.47
2023-03-10T10:01:03.401Z,5.42
2023-03-10T10:06:09.112Z,5.50
2023-03-10T10:11:18.604Z,4.37
2023-03-10T10:16:45.061Z,5.79
2023-03-10T10:21:59.382Z,4.07
2023-03-10T10:27:03.216Z,4.19
2023-03-10T10:32:16.288Z,6.53
2023-03-10T10:37:39.528Z,5.65
2023-03-10T10:42:55.077Z,4.63
2023-03-10T10:47:59.428Z,5.83
2023-03-10T10:53:27.086Z,6.44
2023-03-10T10:58:39.282Z,4.90
2023-03-10T11:03:49.088Z,4.05
2023-03-10T11:09:05.658Z,6.18
2023-03-10T11:14:41.409Z,6.54
2023-03-10T11:20:26.364Z,4.45
2023-03-10T11:26:02.878Z,5.92
2023-03-10T11:31:33.969Z,5.83
2023-03-10T11:37:01.018Z,5.17
2023-03-10T11:42:49.449Z,6.68
2023-03-10T11:48:18.467Z,4.94
2023-03-10T11:54:06.541Z,5.92
2023-03-10T11:59:23.836Z,7.12
2023-03-10T12:04:51.672Z,5.22
2023-03-10T12:10:03.110Z,5.07
2023-03-10T12:15:37.308Z,7.43
2023-03-10T12:20:40.802Z,7.00
2023-03-10T12:25:46.388Z,4.99
2023-03-10T12:31:03.028Z,6.81
2023-03-10T12:36:13.768Z,8.38
2023-03-10T12:41:27.144Z,6.43
2023-03-10T12:46:51.653Z,5.48
2023-03-10T12:52:08.172Z,7.91
2023-03-10T12:58:01.467Z,8.11
2023-03-10T13:04:06.312Z,5.84
2023-03-10T13:09:30.659Z,4.63
2023-03-10T13:14:40.192Z,4.69
2023-03-10T13:19:43.627Z,7.67
2023-03-10T13:25:00.577Z,9.00
2023-03-10T13:30:23.934Z,7.11
2023-03-10T13:35:36.478Z,5.25
2023-03-10T13:40:59.553Z,4.16
2023-03-10T13:46:10.579Z,4.76
2023-03-10T13:51:32.745Z,7.57
2023-03-10T13:56:41.002Z,8.68
2023-03-10T14:01:50.728Z,7.25
2023-03-10T14:07:21.307Z,5.45
2023-03-10T14:12:48.590Z,4.43
2023-03-10T14:18:11.232Z,6.42
2023-03-10T14:23:22.799Z,9.25
2023-03-10T14:28:34.102Z,8.40
2023-03-10T14:33:40.602Z,6.18
2023-03-10T14:38:48.519Z,4.98
2023-03-10T14:44:23.440Z,4.15
2023-03-10T14:50:03.852Z,4.57
2023-03-10T14:55:11.504Z,6.07
2023-03-10T15:00:19.448Z,7.05
2023-03-10T15:05:41.414Z,7.70
2023-03-10T15:10:53.448Z,7.99
2023-03-10T15:15:57.592Z,7.67
2023-03-10T15:21:05.045Z,5.86
2023-03-10T15:26:13.207Z,4.56
2023-03-10T15:31:16.969Z,6.33
2023-03-10T15:36:23.286Z,7.73
2023-03-10T15:41:27.683Z,7.63
2023-03-10T15:46:32.538Z,7.64
2023-03-10T15:51:36.848Z,7.77
2023-03-10T15:56:40.767Z,7.71
2023-03-10T16:01:48.786Z,7.70
2023-03-10T16:06:56.361Z,7.70
2023-03-10T16:12:01.804Z,7.70
2023-03-10T16:17:07.090Z,6.64
2023-03-10T16:22:14.088Z,4.89
2023-03-10T16:27:22.237Z,3.85
2023-03-10T16:32:29.314Z,4.82
2023-03-10T16:37:35.545Z,7.39
2023-03-10T16:42:44.283Z,8.26
2023-03-10T16:47:50.643Z,8.36
2023-03-10T16:52:57.540Z,6.07
2023-03-10T16:58:02.293Z,4.46
2023-03-10T17:03:06.144Z,3.88
2023-03-10T17:08:10.065Z,6.49
2023-03-10T17:13:14.314Z,8.25
2023-03-10T17:18:19.966Z,8.29
2023-03-10T17:23:24.215Z,6.04
2023-03-10T17:28:28.257Z,5.08
2023-03-10T17:33:32.295Z,7.21
2023-03-10T17:38:37.020Z,8.48
2023-03-10T17:43:41.767Z,7.20
2023-03-10T17:48:47.034Z,5.17
2023-03-10T17:53:52.959Z,5.19
2023-03-10T17:58:58.701Z,8.08
2023-03-10T18:04:03.785Z,9.47
2023-03-10T18:09:15.336Z,7.63
2023-03-10T18:14:19.349Z,5.53
2023-03-10T18:19:23.920Z,4.24
2023-03-10T18:24:27.943Z,4.29
2023-03-10T18:29:32.163Z,7.53
2023-03-10T18:34:36.320Z,9.41
2023-03-10T18:39:42.810Z,8.35
2023-03-10T18:44:47.323Z,5.85
2023-03-10T18:49:52.151Z,4.70
2023-03-10T18:54:57.075Z,7.07
2023-03-10T19:00:02.655Z,8.94
2023-03-10T19:05:08.874Z,8.76
2023-03-10T19:10:17.856Z,6.19
2023-03-10T19:15:24.308Z,4.45
2023-03-10T19:20:32.161Z,4.69
2023-03-10T19:25:36.685Z,7.65
2023-03-10T19:30:45.547Z,9.04
2023-03-10T19:35:50.222Z,7.66
2023-03-10T19:40:54.615Z,5.29
2023-03-10T19:46:09.008Z,5.09
2023-03-10T19:51:42.013Z,8.53
2023-03-10T19:56:47.050Z,8.63
2023-03-10T20:01:52.057Z,5.93
2023-03-10T20:06:56.040Z,4.42
2023-03-10T20:12:00.115Z,4.27
2023-03-10T20:17:04.100Z,7.82
2023-03-10T20:22:07.946Z,9.32
2023-03-10T20:27:12.708Z,7.08
2023-03-10T20:32:17.041Z,5.21
2023-03-10T20:37:20.955Z,5.36
2023-03-10T20:42:24.902Z,8.94
2023-03-10T20:47:29.821Z,9.11
2023-03-10T20:52:38.863Z,6.40
2023-03-10T20:57:42.918Z,4.63
2023-03-10T21:02:49.409Z,4.89
2023-03-10T21:07:54.230Z,7.96
2023-03-10T21:12:58.095Z,9.21
2023-03-10T21:18:01.878Z,7.27
2023-03-10T21:23:06.017Z,5.26
2023-03-10T21:28:10.362Z,4.11
2023-03-10T21:33:14.394Z,4.59
2023-03-10T21:38:18.472Z,7.87
2023-03-10T21:43:22.551Z,9.40
2023-03-10T21:48:26.563Z,7.42
2023-03-10T21:53:30.948Z,5.25
2023-03-10T21:58:38.336Z,4.04
2023-03-10T22:03:43.557Z,4.53
2023-03-10T22:08:47.416Z,7.53
2023-03-10T22:13:54.876Z,8.64
2023-03-10T22:18:58.775Z,6.82
2023-03-10T22:24:03.629Z,4.94
2023-03-10T22:29:07.450Z,4.40
2023-03-10T22:34:11.259Z,7.15
2023-03-10T22:39:15.498Z,8.85
2023-03-10T22:44:19.634Z,9.00
2023-03-10T22:49:23.863Z,6.50
2023-03-10T22:54:29.030Z,4.83
2023-03-10T22:59:32.835Z,5.12
2023-03-10T23:04:36.660Z,8.46
2023-03-10T23:09:40.694Z,8.97
2023-03-10T23:14:44.728Z,6.50
2023-03-10T23:19:51.630Z,4.97
2023-03-10T23:24:55.560Z,4.00
2023-03-10T23:29:59.494Z,4.67
2023-03-10T23:35:06.211Z,8.00
2023-03-10T23:40:15.228Z,9.57
2023-03-10T23:45:20.763Z,8.02
2023-03-10T23:50:47.147Z,5.85
2023-03-10T23:55:51.300Z,4.49
